createdAt,value
2019-02-17T00:01:13.132Z,19.13
2019-02-17T00:03:13.988Z,19.03
2019-02-17T00:05:14.822Z,19.80
2019-02-17T00:07:15.664Z,19.43
2019-02-17T00:09:16.824Z,21.47
2019-02-17T00:11:17.657Z,23.47
2019-02-17T00:13:18.574Z,23.00
2019-02-17T00:15:19.773Z,23.90
2019-02-17T00:17:20.696Z,23.17
2019-02-17T00:19:21.816Z,22.47
2019-02-17T00:21:22.652Z,21.47
2019-02-17T00:23:23.497Z,21.33
2019-02-17T00:25:24.324Z,21.97
2019-02-17T00:27:25.168Z,22.63
2019-02-17T00:29:26.030Z,21.50
2019-02-17T00:31:27.344Z,20.73
2019-02-17T00:33:28.260Z,22.70
2019-02-17T00:35:29.092Z,22.47
2019-02-17T00:37:29.919Z,22.27
2019-02-17T00:39:30.768Z,23.60
2019-02-17T00:41:31.595Z,23.43
2019-02-17T00:43:32.444Z,22.83
2019-02-17T00:45:33.280Z,22.47
2019-02-17T00:47:34.164Z,22.03
2019-02-17T00:49:35.306Z,23.40
2019-02-17T00:51:36.556Z,22.20
2019-02-17T00:53:37.744Z,21.63
2019-02-17T00:55:38.589Z,20.53
2019-02-17T00:57:39.673Z,20.30
2019-02-17T00:59:40.525Z,18.43
2019-02-17T01:01:41.381Z,18.60
2019-02-17T01:03:42.303Z,18.60
2019-02-17T01:05:43.148Z,21.47
2019-02-17T01:07:44.032Z,19.87
2019-02-17T01:09:44.861Z,24.93
2019-02-17T01:11:45.709Z,26.13
2019-02-17T01:13:46.855Z,26.00
2019-02-17T01:15:48.012Z,24.93
2019-02-17T01:17:48.841Z,27.13
2019-02-17T01:19:49.675Z,26.80
2019-02-17T01:21:50.852Z,25.83
2019-02-17T01:23:51.689Z,26.83
2019-02-17T01:25:52.524Z,28.20
2019-02-17T01:27:53.719Z,27.20
2019-02-17T01:29:54.548Z,26.77
2019-02-17T01:31:55.402Z,26.93
2019-02-17T01:33:56.236Z,27.53
2019-02-17T01:35:57.052Z,24.40
2019-02-17T01:37:58.384Z,22.87
2019-02-17T01:39:59.344Z,20.97
2019-02-17T01:42:00.168Z,21.67
2019-02-17T01:44:01.313Z,24.07
2019-02-17T01:46:02.441Z,24.10
2019-02-17T01:48:03.531Z,23.43
2019-02-17T01:50:04.381Z,23.77
2019-02-17T01:52:05.213Z,23.63
2019-02-17T01:54:06.036Z,23.90
2019-02-17T01:56:06.954Z,26.03
2019-02-17T01:58:07.860Z,25.27
2019-02-17T02:00:08.697Z,27.97
2019-02-17T02:02:09.633Z,28.97
2019-02-17T02:04:10.469Z,27.90
2019-02-17T02:06:11.412Z,29.50
2019-02-17T02:08:12.527Z,26.63
2019-02-17T02:10:13.396Z,28.57
2019-02-17T02:12:14.236Z,26.63
2019-02-17T02:14:15.093Z,26.53
2019-02-17T02:16:15.928Z,26.57
2019-02-17T02:18:16.795Z,26.30
2019-02-17T02:20:17.628Z,26.07
2019-02-17T02:22:18.472Z,25.47
2019-02-17T02:24:19.333Z,25.37
2019-02-17T02:26:20.155Z,24.70
2019-02-17T02:28:21.133Z,26.13
2019-02-17T02:30:21.969Z,28.07
2019-02-17T02:32:23.121Z,28.07
2019-02-17T02:34:23.978Z,27.60
2019-02-17T02:36:24.816Z,26.13
2019-02-17T02:38:25.656Z,27.83
2019-02-17T02:40:26.528Z,27.87
2019-02-17T02:42:27.712Z,27.20
2019-02-17T02:44:28.561Z,26.80
2019-02-17T02:46:29.397Z,24.67
2019-02-17T02:48:30.228Z,25.20
2019-02-17T02:50:31.076Z,25.47
2019-02-17T02:52:31.934Z,24.53
2019-02-17T02:54:32.761Z,24.50
2019-02-17T02:56:33.593Z,24.53
2019-02-17T02:58:34.436Z,24.77
2019-02-17T03:00:35.273Z,25.10
2019-02-17T03:02:36.126Z,25.00
2019-02-17T03:04:36.962Z,25.10
2019-02-17T03:06:53.948Z,26.93
2019-02-17T03:08:54.854Z,25.30
2019-02-17T03:10:55.692Z,27.10
2019-02-17T03:12:56.592Z,24.80
2019-02-17T03:14:57.449Z,24.07
2019-02-17T03:17:00.689Z,23.00
2019-02-17T03:19:01.333Z,25.20
2019-02-17T03:21:02.217Z,24.53
2019-02-17T03:23:03.061Z,25.00
2019-02-17T03:25:03.898Z,25.40
2019-02-17T03:27:04.760Z,24.13
2019-02-17T03:29:05.580Z,26.13
2019-02-17T03:31:06.442Z,26.20
2019-02-17T03:33:07.291Z,26.87
2019-02-17T03:35:08.118Z,25.47
2019-02-17T03:37:08.982Z,26.37
2019-02-17T03:39:10.075Z,26.33
2019-02-17T03:41:10.906Z,27.60
2019-02-17T03:43:11.767Z,26.50
2019-02-17T03:45:12.595Z,27.07
2019-02-17T03:47:13.445Z,24.67
2019-02-17T03:49:14.268Z,24.80
2019-02-17T03:51:15.122Z,23.40
2019-02-17T03:53:15.949Z,25.30
2019-02-17T03:55:16.797Z,25.10
2019-02-17T03:57:17.659Z,24.93
2019-02-17T03:59:18.497Z,24.83
2019-02-17T04:01:19.335Z,26.33
2019-02-17T04:03:20.168Z,24.77
2019-02-17T04:05:21.114Z,25.43
2019-02-17T04:07:21.945Z,25.73
2019-02-17T04:09:22.788Z,25.67
2019-02-17T04:11:23.641Z,26.00
2019-02-17T04:13:24.743Z,26.80
2019-02-17T04:15:25.672Z,26.13
2019-02-17T04:17:26.523Z,26.27
2019-02-17T04:19:27.351Z,25.30
2019-02-17T04:21:28.184Z,25.97
2019-02-17T04:23:31.582Z,27.40
2019-02-17T04:25:31.798Z,27.77
2019-02-17T04:27:32.628Z,25.87
2019-02-17T04:29:33.477Z,23.97
2019-02-17T04:31:34.301Z,22.47
2019-02-17T04:33:35.148Z,21.93
2019-02-17T04:35:35.981Z,23.77
2019-02-17T04:37:37.103Z,23.53
2019-02-17T04:39:37.953Z,22.47
2019-02-17T04:41:38.797Z,23.20
2019-02-17T04:43:39.635Z,21.93
2019-02-17T04:45:40.497Z,24.33
2019-02-17T04:47:41.320Z,25.53
2019-02-17T04:49:42.182Z,24.73
2019-02-17T04:51:43.028Z,25.43
2019-02-17T04:53:43.867Z,25.83
2019-02-17T04:55:44.689Z,27.07
2019-02-17T04:57:45.542Z,25.67
2019-02-17T04:59:46.364Z,25.27
2019-02-17T05:01:47.205Z,24.43
2019-02-17T05:03:48.049Z,26.73
2019-02-17T05:05:48.884Z,26.50
2019-02-17T05:07:49.725Z,27.20
2019-02-17T05:09:50.560Z,27.37
2019-02-17T05:11:51.392Z,26.30
2019-02-17T05:13:52.242Z,26.07
2019-02-17T05:15:53.184Z,26.87
2019-02-17T05:17:54.014Z,28.03
2019-02-17T05:19:54.847Z,26.13
2019-02-17T05:21:55.694Z,26.70
2019-02-17T05:23:57.093Z,26.90
2019-02-17T05:25:57.932Z,27.37
2019-02-17T05:27:58.773Z,25.93
2019-02-17T05:29:59.624Z,26.20
2019-02-17T05:32:00.725Z,26.53
2019-02-17T05:34:01.552Z,25.73
2019-02-17T05:36:02.409Z,27.07
2019-02-17T05:38:03.240Z,26.33
2019-02-17T05:40:04.067Z,26.33
2019-02-17T05:42:04.908Z,26.53
2019-02-17T05:44:05.738Z,25.93
2019-02-17T05:46:06.573Z,26.00
2019-02-17T05:48:07.417Z,25.63
2019-02-17T05:50:08.255Z,27.17
2019-02-17T05:52:09.104Z,26.67
2019-02-17T05:54:09.940Z,26.40
2019-02-17T05:56:10.764Z,27.50
2019-02-17T05:58:11.597Z,26.63
2019-02-17T06:00:13.356Z,25.93
2019-02-17T06:02:14.189Z,26.93
2019-02-17T06:04:15.277Z,26.80
2019-02-17T06:06:16.119Z,26.40
2019-02-17T06:08:16.959Z,26.00
2019-02-17T06:10:17.793Z,27.30
2019-02-17T06:12:18.787Z,25.57
2019-02-17T06:14:20.057Z,26.43
2019-02-17T06:16:21.295Z,26.57
2019-02-17T06:18:22.150Z,25.80
2019-02-17T06:20:22.972Z,26.33
2019-02-17T06:22:23.867Z,26.10
2019-02-17T06:24:24.768Z,25.63
2019-02-17T06:26:25.606Z,25.87
2019-02-17T06:28:26.439Z,25.77
2019-02-17T06:30:27.273Z,25.37
2019-02-17T06:32:28.096Z,25.30
2019-02-17T06:34:28.949Z,25.00
2019-02-17T06:36:29.780Z,25.27
2019-02-17T06:38:30.637Z,25.87
2019-02-17T06:40:31.467Z,25.53
2019-02-17T06:42:32.293Z,26.20
2019-02-17T06:44:33.148Z,25.37
2019-02-17T06:46:38.888Z,26.00
2019-02-17T06:48:39.724Z,25.90
2019-02-17T06:50:40.577Z,24.77
2019-02-17T06:52:41.403Z,25.43
2019-02-17T06:54:44.495Z,25.27
2019-02-17T06:56:49.900Z,24.73
2019-02-17T06:58:50.724Z,24.47
2019-02-17T07:00:53.436Z,25.17
2019-02-17T07:02:54.271Z,24.73
2019-02-17T07:05:20.566Z,25.73
2019-02-17T07:07:21.384Z,26.03
2019-02-17T07:09:22.228Z,24.93
2019-02-17T07:11:23.547Z,26.70
2019-02-17T07:13:24.478Z,26.97
2019-02-17T07:15:25.329Z,26.40
2019-02-17T07:17:26.173Z,26.03
2019-02-17T07:19:27.008Z,25.70
2019-02-17T07:21:27.867Z,25.93
2019-02-17T07:23:28.725Z,25.93
2019-02-17T07:25:30.538Z,24.90
2019-02-17T07:27:31.599Z,25.00
2019-02-17T07:29:32.441Z,23.57
2019-02-17T07:31:35.184Z,23.83
2019-02-17T07:33:36.296Z,24.43
2019-02-17T07:35:37.142Z,23.07
2019-02-17T07:37:37.954Z,21.57
2019-02-17T07:39:38.800Z,22.37
2019-02-17T07:41:39.645Z,21.20
2019-02-17T07:43:40.480Z,21.63
2019-02-17T07:45:41.599Z,21.23
2019-02-17T07:47:42.428Z,22.80
2019-02-17T07:49:43.277Z,22.90
2019-02-17T07:51:44.105Z,22.40
2019-02-17T07:53:44.949Z,21.57
2019-02-17T07:55:45.878Z,21.83
2019-02-17T07:57:46.721Z,21.33
2019-02-17T07:59:47.826Z,21.23
2019-02-17T08:01:48.665Z,20.13
2019-02-17T08:03:49.504Z,20.53
2019-02-17T08:05:50.356Z,21.27
2019-02-17T08:07:51.195Z,21.27
2019-02-17T08:09:52.297Z,21.17
2019-02-17T08:11:53.164Z,21.17
2019-02-17T08:13:54.223Z,20.53
2019-02-17T08:15:55.072Z,19.90
2019-02-17T08:17:56.260Z,19.77
2019-02-17T08:19:57.092Z,21.00
2019-02-17T08:21:57.936Z,21.40
2019-02-17T08:23:58.776Z,24.67
2019-02-17T08:25:59.881Z,20.83
2019-02-17T08:28:00.752Z,24.23
2019-02-17T08:30:01.918Z,23.83
2019-02-17T08:32:02.757Z,21.63
2019-02-17T08:34:03.600Z,21.67
2019-02-17T08:36:04.460Z,20.13
2019-02-17T08:38:05.317Z,20.73
2019-02-17T08:40:06.156Z,21.13
2019-02-17T08:42:07.010Z,20.70
2019-02-17T08:44:07.872Z,20.93
2019-02-17T08:46:08.720Z,21.50
2019-02-17T08:48:09.568Z,21.40
2019-02-17T08:50:10.416Z,20.27
2019-02-17T08:52:11.253Z,20.50
2019-02-17T08:54:12.192Z,19.87
2019-02-17T08:56:13.049Z,20.87
2019-02-17T08:58:14.255Z,20.20
2019-02-17T09:00:15.094Z,19.60
2019-02-17T09:02:15.941Z,21.00
2019-02-17T09:04:16.789Z,21.83
2019-02-17T09:06:17.625Z,21.97
2019-02-17T09:08:18.455Z,20.97
2019-02-17T09:10:19.554Z,22.17
2019-02-17T09:12:20.417Z,22.67
2019-02-17T09:14:21.264Z,23.17
2019-02-17T09:16:22.448Z,22.30
2019-02-17T09:18:23.289Z,22.67
2019-02-17T09:20:24.140Z,23.87
2019-02-17T09:22:24.983Z,23.20
2019-02-17T09:24:25.815Z,23.63
2019-02-17T09:26:26.669Z,23.67
2019-02-17T09:28:27.505Z,23.50
2019-02-17T09:30:28.352Z,22.47
2019-02-17T09:32:29.205Z,22.73
2019-02-17T09:34:30.036Z,23.30
2019-02-17T09:36:30.901Z,23.03
2019-02-17T09:38:31.734Z,22.80
2019-02-17T09:40:32.616Z,24.33
2019-02-17T09:42:33.496Z,23.50
2019-02-17T09:44:34.324Z,24.30
2019-02-17T09:46:35.169Z,25.53
2019-02-17T09:48:35.995Z,23.80
2019-02-17T09:50:36.854Z,23.47
2019-02-17T09:52:37.948Z,22.73
2019-02-17T09:54:38.885Z,24.40
2019-02-17T09:56:39.785Z,24.20
2019-02-17T09:58:40.817Z,25.30
2019-02-17T10:00:41.730Z,24.23
2019-02-17T10:02:42.620Z,25.10
2019-02-17T10:04:43.496Z,22.53
2019-02-17T10:06:44.533Z,23.33
2019-02-17T10:08:45.454Z,22.33
2019-02-17T10:10:46.498Z,22.80
2019-02-17T10:12:47.583Z,22.53
2019-02-17T10:14:48.632Z,21.63
2019-02-17T10:16:49.670Z,22.47
2019-02-17T10:18:50.796Z,22.20
2019-02-17T10:20:51.832Z,21.57
2019-02-17T10:22:52.763Z,21.63
2019-02-17T10:24:53.682Z,21.13
2019-02-17T10:26:54.609Z,20.97
2019-02-17T10:28:55.564Z,20.77
2019-02-17T10:30:56.495Z,21.47
2019-02-17T10:32:57.404Z,20.20
2019-02-17T10:34:58.253Z,21.67
2019-02-17T10:36:59.244Z,21.10
2019-02-17T10:39:00.089Z,20.47
2019-02-17T10:41:00.956Z,20.27
2019-02-17T10:43:03.634Z,18.43
2019-02-17T10:45:04.676Z,18.47
2019-02-17T10:47:05.800Z,19.03
2019-02-17T10:49:06.647Z,18.60
2019-02-17T10:51:07.506Z,18.20
2019-02-17T10:53:08.337Z,18.50
2019-02-17T10:55:09.194Z,18.30
2019-02-17T10:57:10.063Z,17.70
2019-02-17T10:59:11.009Z,17.57
2019-02-17T11:01:11.881Z,18.97
2019-02-17T11:03:12.717Z,17.87
2019-02-17T11:05:13.563Z,17.00
2019-02-17T11:07:14.764Z,16.33
2019-02-17T11:09:19.725Z,16.67
2019-02-17T11:11:20.621Z,16.17
2019-02-17T11:13:21.533Z,16.03
2019-02-17T11:15:22.385Z,15.40
2019-02-17T11:17:23.510Z,15.80
2019-02-17T11:19:24.760Z,15.57
2019-02-17T11:21:25.592Z,16.20
2019-02-17T11:23:26.443Z,17.43
2019-02-17T11:25:27.300Z,18.43
2019-02-17T11:27:28.153Z,17.73
2019-02-17T11:29:28.981Z,17.70
2019-02-17T11:31:30.150Z,17.10
2019-02-17T11:33:31.011Z,17.10
2019-02-17T11:35:32.145Z,17.20
2019-02-17T11:37:33.471Z,17.27
2019-02-17T11:39:34.332Z,16.30
2019-02-17T11:41:35.559Z,17.47
2019-02-17T11:43:36.405Z,16.67
2019-02-17T11:45:37.240Z,16.33
2019-02-17T11:47:38.088Z,16.07
2019-02-17T11:49:38.920Z,16.53
2019-02-17T11:51:40.038Z,17.30
2019-02-17T11:53:40.868Z,17.03
2019-02-17T11:55:41.733Z,16.47
2019-02-17T11:57:42.576Z,15.97
2019-02-17T11:59:43.412Z,17.10
2019-02-17T12:01:44.278Z,17.60
2019-02-17T12:03:45.117Z,17.80
2019-02-17T12:05:46.269Z,16.67
2019-02-17T12:07:47.127Z,16.37
2019-02-17T12:09:47.952Z,16.17
2019-02-17T12:11:49.076Z,16.63
2019-02-17T12:13:49.928Z,16.57
2019-02-17T12:15:50.877Z,15.60
2019-02-17T12:17:51.801Z,15.50
2019-02-17T12:19:54.557Z,14.63
2019-02-17T12:22:30.104Z,14.70
2019-02-17T12:24:34.900Z,10.70
2019-02-17T12:26:46.565Z,10.87
2019-02-17T12:29:00.564Z,9.83
2019-02-17T12:31:01.456Z,10.30
2019-02-17T12:33:02.376Z,8.43
2019-02-17T12:35:03.216Z,8.37
2019-02-17T12:37:04.084Z,8.00
2019-02-17T12:39:04.928Z,6.70
2019-02-17T12:41:05.825Z,6.93
2019-02-17T12:43:06.661Z,6.43
2019-02-17T12:45:07.501Z,6.60
2019-02-17T12:47:08.373Z,6.60
2019-02-17T12:49:09.234Z,5.17
2019-02-17T12:51:10.122Z,4.33
2019-02-17T12:53:10.952Z,5.90
2019-02-17T12:55:12.108Z,3.80
2019-02-17T12:57:13.185Z,3.80
2019-02-17T12:59:14.649Z,3.60
2019-02-17T13:01:15.497Z,3.97
2019-02-17T13:03:16.332Z,3.93
2019-02-17T13:05:17.199Z,3.93
2019-02-17T13:07:18.028Z,4.30
2019-02-17T13:09:19.163Z,3.40
2019-02-17T13:11:20.013Z,3.70
2019-02-17T13:13:20.848Z,3.63
2019-02-17T13:15:21.708Z,3.47
2019-02-17T13:17:22.576Z,3.40
2019-02-17T13:19:23.445Z,3.40
2019-02-17T13:21:24.585Z,4.03
2019-02-17T13:23:25.445Z,3.50
2019-02-17T13:25:26.563Z,3.40
2019-02-17T13:27:27.393Z,3.43
2019-02-17T13:29:28.221Z,3.10
2019-02-17T13:31:29.065Z,3.30
2019-02-17T13:33:38.758Z,3.20
2019-02-17T13:35:33.181Z,3.83
2019-02-17T13:37:34.044Z,3.77
2019-02-17T13:39:34.868Z,3.30
2019-02-17T13:41:35.727Z,3.30
2019-02-17T13:43:36.562Z,3.10
2019-02-17T13:45:37.380Z,3.00
2019-02-17T13:47:38.218Z,2.83
2019-02-17T13:49:39.061Z,2.90
2019-02-17T13:51:40.536Z,2.33
2019-02-17T13:53:41.392Z,2.50
2019-02-17T13:55:42.222Z,2.63
2019-02-17T13:57:43.075Z,2.70
2019-02-17T13:59:43.921Z,2.57
2019-02-17T14:01:45.008Z,2.77
2019-02-17T14:03:48.834Z,2.63
2019-02-17T14:05:48.913Z,2.70
2019-02-17T14:07:50.096Z,2.70
2019-02-17T14:09:50.948Z,2.53
2019-02-17T14:11:51.868Z,2.70
2019-02-17T14:13:52.734Z,2.90
2019-02-17T14:15:53.569Z,2.50
2019-02-17T14:17:54.422Z,2.50
2019-02-17T14:19:55.260Z,2.17
2019-02-17T14:21:56.421Z,2.63
2019-02-17T14:23:57.329Z,2.80
2019-02-17T14:25:58.171Z,3.20
2019-02-17T14:27:59.033Z,2.73
2019-02-17T14:29:59.870Z,3.10
2019-02-17T14:32:00.684Z,3.27
2019-02-17T14:34:01.528Z,3.20
2019-02-17T14:36:02.367Z,3.33
2019-02-17T14:38:03.225Z,3.27
2019-02-17T14:40:04.044Z,2.97
2019-02-17T14:42:05.176Z,3.60
2019-02-17T14:44:06.009Z,3.60
2019-02-17T14:46:06.841Z,3.77
2019-02-17T14:48:07.692Z,3.43
2019-02-17T14:50:08.524Z,3.30
2019-02-17T14:52:09.373Z,3.30
2019-02-17T14:54:10.199Z,4.20
2019-02-17T14:56:11.024Z,3.60
2019-02-17T14:58:11.881Z,3.10
2019-02-17T15:00:12.701Z,3.20
2019-02-17T15:02:13.565Z,2.70
2019-02-17T15:04:14.400Z,2.90
2019-02-17T15:06:15.226Z,2.97
2019-02-17T15:08:16.072Z,2.97
2019-02-17T15:10:16.913Z,2.93
2019-02-17T15:12:18.074Z,2.97
2019-02-17T15:14:18.913Z,3.10
2019-02-17T15:16:19.794Z,2.93
2019-02-17T15:18:20.737Z,3.13
2019-02-17T15:20:21.577Z,3.07
2019-02-17T15:22:22.771Z,3.00
2019-02-17T15:24:23.890Z,3.33
2019-02-17T15:26:24.748Z,3.50
2019-02-17T15:28:25.586Z,3.73
2019-02-17T15:30:26.421Z,3.67
2019-02-17T15:32:27.288Z,3.50
2019-02-17T15:34:28.127Z,3.53
2019-02-17T15:36:28.973Z,3.50
2019-02-17T15:38:29.825Z,3.53
2019-02-17T15:40:30.654Z,3.70
2019-02-17T15:42:31.499Z,3.83
2019-02-17T15:44:32.334Z,4.20
2019-02-17T15:46:33.160Z,4.37
2019-02-17T15:48:34.011Z,3.80
2019-02-17T15:50:34.838Z,5.17
2019-02-17T15:52:35.790Z,4.80
2019-02-17T15:54:36.616Z,4.37
2019-02-17T15:56:37.449Z,4.90
2019-02-17T15:58:38.288Z,4.73
2019-02-17T16:00:39.122Z,4.30
2019-02-17T16:02:40.211Z,4.43
2019-02-17T16:04:41.072Z,5.50
2019-02-17T16:06:41.920Z,5.10
2019-02-17T16:08:42.773Z,5.60
2019-02-17T16:10:43.604Z,5.30
2019-02-17T16:12:44.457Z,5.00
2019-02-17T16:14:45.291Z,4.47
2019-02-17T16:16:46.135Z,4.70
2019-02-17T16:18:46.986Z,4.80
2019-02-17T16:20:47.808Z,4.37
2019-02-17T16:22:48.634Z,4.37
2019-02-17T16:24:49.493Z,4.60
2019-02-17T16:26:50.345Z,4.30
2019-02-17T16:28:51.461Z,4.40
2019-02-17T16:30:52.299Z,4.80
2019-02-17T16:32:53.160Z,4.93
2019-02-17T16:34:53.995Z,4.90
2019-02-17T16:36:55.120Z,4.60
2019-02-17T16:38:56.450Z,5.07
2019-02-17T16:40:57.314Z,5.80
2019-02-17T16:42:58.224Z,5.20
2019-02-17T16:45:00.662Z,5.40
2019-02-17T16:47:01.828Z,5.60
2019-02-17T16:49:02.697Z,5.73
2019-02-17T16:51:03.525Z,6.30
2019-02-17T16:53:04.390Z,7.17
2019-02-17T16:55:05.293Z,7.97
2019-02-17T16:57:06.144Z,6.53
2019-02-17T16:59:06.988Z,6.10
2019-02-17T17:01:07.824Z,4.83
2019-02-17T17:03:08.660Z,5.50
2019-02-17T17:05:09.501Z,5.22
2019-02-17T17:07:10.360Z,5.30
2019-02-17T17:09:11.228Z,4.93
2019-02-17T17:11:12.076Z,4.40
2019-02-17T17:13:12.904Z,4.33
2019-02-17T17:15:13.753Z,4.30
2019-02-17T17:17:14.608Z,4.70
2019-02-17T17:19:15.508Z,4.60
2019-02-17T17:21:16.366Z,5.10
2019-02-17T17:23:17.176Z,4.30
2019-02-17T17:25:18.160Z,4.00
2019-02-17T17:27:18.992Z,4.00
2019-02-17T17:29:19.924Z,4.50
2019-02-17T17:31:20.782Z,3.87
2019-02-17T17:33:21.617Z,4.27
2019-02-17T17:35:22.760Z,4.13
2019-02-17T17:37:23.617Z,4.83
2019-02-17T17:39:24.459Z,6.43
2019-02-17T17:41:25.577Z,7.27
2019-02-17T17:43:26.430Z,7.73
2019-02-17T17:45:27.283Z,6.63
2019-02-17T17:47:28.465Z,6.00
2019-02-17T17:49:29.301Z,7.80
2019-02-17T17:51:30.156Z,8.27
2019-02-17T17:53:31.021Z,8.60
2019-02-17T17:55:31.873Z,7.73
2019-02-17T17:57:32.716Z,7.17
2019-02-17T17:59:33.611Z,6.63
2019-02-17T18:01:34.556Z,6.43
2019-02-17T18:03:35.385Z,6.70
2019-02-17T18:05:36.288Z,6.30
2019-02-17T18:07:37.132Z,6.10
2019-02-17T18:09:37.964Z,7.23
2019-02-17T18:11:38.816Z,7.20
2019-02-17T18:13:39.671Z,6.80
2019-02-17T18:15:40.560Z,6.70
2019-02-17T18:17:41.677Z,7.57
2019-02-17T18:19:42.510Z,10.80
2019-02-17T18:21:43.345Z,8.77
2019-02-17T18:23:44.202Z,7.77
2019-02-17T18:25:45.050Z,9.17
2019-02-17T18:27:45.918Z,6.73
2019-02-17T18:29:46.740Z,6.60
2019-02-17T18:31:47.586Z,5.20
2019-02-17T18:33:48.428Z,5.37
2019-02-17T18:35:49.603Z,5.23
2019-02-17T18:37:50.443Z,5.60
2019-02-17T18:39:51.545Z,5.40
2019-02-17T18:41:52.406Z,6.40
2019-02-17T18:43:53.240Z,12.53
2019-02-17T18:45:54.072Z,12.70
2019-02-17T18:47:54.932Z,11.97
2019-02-17T18:49:55.769Z,11.47
2019-02-17T18:51:56.623Z,17.00
2019-02-17T18:53:57.672Z,15.97
2019-02-17T18:55:58.565Z,13.40
2019-02-17T18:57:59.416Z,11.27
2019-02-17T19:00:00.293Z,9.53
2019-02-17T19:02:01.186Z,8.63
2019-02-17T19:04:02.043Z,7.53
2019-02-17T19:06:02.859Z,8.30
2019-02-17T19:08:03.720Z,9.03
2019-02-17T19:10:04.557Z,10.27
2019-02-17T19:12:05.400Z,9.03
2019-02-17T19:14:06.237Z,9.87
2019-02-17T19:16:07.090Z,9.90
2019-02-17T19:18:07.936Z,9.90
2019-02-17T19:20:08.759Z,10.37
2019-02-17T19:22:09.617Z,10.77
2019-02-17T19:24:10.445Z,10.10
2019-02-17T19:26:11.330Z,10.53
2019-02-17T19:28:12.156Z,10.33
2019-02-17T19:30:13.034Z,11.63
2019-02-17T19:32:13.884Z,13.83
2019-02-17T19:34:14.768Z,13.67
2019-02-17T19:36:15.636Z,11.97
2019-02-17T19:38:16.490Z,12.30
2019-02-17T19:40:17.376Z,15.07
2019-02-17T19:42:18.253Z,13.17
2019-02-17T19:44:19.104Z,10.23
2019-02-17T19:46:19.953Z,5.37
2019-02-17T19:48:20.781Z,5.30
2019-02-17T19:50:21.623Z,12.47
2019-02-17T19:52:22.468Z,10.98
2019-02-17T19:54:23.289Z,11.93
2019-02-17T19:56:24.148Z,15.67
2019-02-17T19:58:25.016Z,18.10
2019-02-17T20:00:25.845Z,16.17
2019-02-17T20:02:45.260Z,12.90
2019-02-17T20:04:51.897Z,11.57
2019-02-17T20:06:52.733Z,12.40
2019-02-17T20:08:53.596Z,14.10
2019-02-17T20:10:54.473Z,14.77
2019-02-17T20:12:55.316Z,15.70
2019-02-17T20:14:56.141Z,18.37
2019-02-17T20:16:56.996Z,16.70
2019-02-17T20:18:57.838Z,16.10
2019-02-17T20:20:58.668Z,16.67
2019-02-17T20:22:59.516Z,18.67
2019-02-17T20:25:00.376Z,18.37
2019-02-17T20:27:01.205Z,17.40
2019-02-17T20:29:02.041Z,19.03
2019-02-17T20:31:02.905Z,18.53
2019-02-17T20:33:03.728Z,18.70
2019-02-17T20:35:04.899Z,18.20
2019-02-17T20:37:06.007Z,17.57
2019-02-17T20:39:06.852Z,19.50
2019-02-17T20:41:07.688Z,20.10
2019-02-17T20:43:08.810Z,20.30
2019-02-17T20:45:09.957Z,19.83
2019-02-17T20:47:10.813Z,20.77
2019-02-17T20:49:11.645Z,20.83
2019-02-17T20:51:12.485Z,20.47
2019-02-17T20:53:13.344Z,22.90
2019-02-17T20:55:14.176Z,23.90
2019-02-17T20:57:15.033Z,22.57
2019-02-17T20:59:16.172Z,23.50
2019-02-17T21:01:17.033Z,24.17
2019-02-17T21:03:17.904Z,24.40
2019-02-17T21:05:19.037Z,23.93
2019-02-17T21:07:19.878Z,24.13
2019-02-17T21:09:20.824Z,23.67
2019-02-17T21:11:21.659Z,24.30
2019-02-17T21:13:22.838Z,21.23
2019-02-17T21:15:23.685Z,20.63
2019-02-17T21:17:24.545Z,19.47
2019-02-17T21:19:25.384Z,20.50
2019-02-17T21:21:26.260Z,19.17
2019-02-17T21:23:27.105Z,19.50
2019-02-17T21:25:27.960Z,17.00
2019-02-17T21:27:28.810Z,15.50
2019-02-17T21:29:29.908Z,14.13
2019-02-17T21:31:30.761Z,14.53
2019-02-17T21:33:32.472Z,15.10
2019-02-17T21:35:33.296Z,14.20
2019-02-17T21:37:34.167Z,14.67
2019-02-17T21:39:34.992Z,15.60
2019-02-17T21:41:36.081Z,18.60
2019-02-17T21:43:36.940Z,17.87
2019-02-17T21:45:37.764Z,17.77
2019-02-17T21:47:39.252Z,17.70
2019-02-17T21:49:40.170Z,16.27
2019-02-17T21:51:41.277Z,14.50
2019-02-17T21:53:42.104Z,14.63
2019-02-17T21:55:43.242Z,14.40
2019-02-17T21:57:44.083Z,13.63
2019-02-17T21:59:44.912Z,13.17
2019-02-17T22:01:45.765Z,12.70
2019-02-17T22:03:46.621Z,13.70
2019-02-17T22:05:47.473Z,14.43
2019-02-17T22:07:48.341Z,15.20
2019-02-17T22:09:49.428Z,14.33
2019-02-17T22:11:50.285Z,14.67
2019-02-17T22:13:51.123Z,14.10
2019-02-17T22:15:51.968Z,14.63
2019-02-17T22:17:52.829Z,20.63
2019-02-17T22:19:53.659Z,19.53
2019-02-17T22:21:54.525Z,18.57
2019-02-17T22:23:55.363Z,16.77
2019-02-17T22:25:56.507Z,18.57
2019-02-17T22:27:57.361Z,18.07
2019-02-17T22:29:58.493Z,17.13
2019-02-17T22:31:59.354Z,16.10
2019-02-17T22:34:00.304Z,15.43
2019-02-17T22:36:01.160Z,14.67
2019-02-17T22:38:02.008Z,15.20
2019-02-17T22:40:02.837Z,13.23
2019-02-17T22:42:03.933Z,13.17
2019-02-17T22:44:05.033Z,13.50
2019-02-17T22:46:05.903Z,13.83
2019-02-17T22:48:06.838Z,14.27
2019-02-17T22:50:07.759Z,16.40
2019-02-17T22:52:08.818Z,16.50
2019-02-17T22:54:09.649Z,16.90
2019-02-17T22:56:10.781Z,16.50
2019-02-17T22:58:11.616Z,16.07
2019-02-17T23:00:12.893Z,16.27
2019-02-17T23:02:13.744Z,18.93
2019-02-17T23:04:14.619Z,20.50
2019-02-17T23:06:15.460Z,20.47
2019-02-17T23:08:16.344Z,20.23
2019-02-17T23:10:17.292Z,22.13
2019-02-17T23:12:18.149Z,21.90
2019-02-17T23:14:19.001Z,22.07
2019-02-17T23:16:19.860Z,21.17
2019-02-17T23:18:20.717Z,21.27
2019-02-17T23:20:21.553Z,19.77
2019-02-17T23:22:22.409Z,19.03
2019-02-17T23:24:23.282Z,17.50
2019-02-17T23:26:24.124Z,18.17
2019-02-17T23:28:24.973Z,17.67
2019-02-17T23:30:25.828Z,16.90
2019-02-17T23:32:26.664Z,17.67
2019-02-17T23:34:27.504Z,18.77
2019-02-17T23:36:28.644Z,18.50
2019-02-17T23:38:29.478Z,17.90
2019-02-17T23:40:30.330Z,18.37
2019-02-17T23:42:31.212Z,19.70
2019-02-17T23:44:32.016Z,19.10
2019-02-17T23:46:33.101Z,18.13
2019-02-17T23:48:34.261Z,18.70
2019-02-17T23:50:35.347Z,18.43
2019-02-17T23:52:36.183Z,18.17
2019-02-17T23:54:37.038Z,17.97
2019-02-17T23:56:38.188Z,18.73
2019-02-17T23:58:39.043Z,19.40
